Nivelles, Belgium
Current Conditions -  °F | °C
As of 12:50 PM on Monday 22 Dec 2014 (Local Time) from EBCI Reporting Station
Broken Clouds Broken Clouds  
Wind Chill:   Ceiling: 600
Heat Index:   Visibility: 6mi
Dew Point:   Wind: 23mph
Humidity: 93%   Direction: 210°SSW
Pressure: 30.18"   Gusts: 35mph
Location:  50.6°N, 4.33°E
Report Text: EBCI 221150Z 21020G30KT 9999 BKN006 08/07 Q1022 TEMPO 23020G35KT
Loading
Personal Weather Stations






























Interactive Weather Map New forecast layout! Learn more

10-Day Weather Forecast

Advertisements
Track Severe Weather on mobile